Nearby METAR Reports

 

K1A5 - Macon/Franklin, North Carolina, USA
Distance from station: WSW 16mi, 25km
Updated: Fri, 23-Jun-2017 9:20pm EDT

 
Temperature: 72°F , 22°C
Dew Point: 68°F , 20°C
Humidity: 88%
2017/06/24 01:20 K1A5 240120Z AUTO 22/20 RMK AO2 T02210200 PWINO
KAVL - Asheville, North Carolina, USA
Distance from station: ENE 36mi, 59km
Updated: Fri, 23-Jun-2017 8:54pm EDT
Overcast
Overcast
 Wind from S
Wind: S 13 mph , 20 km/h
Temperature: 79°F , 26°C
Dew Point: 64°F , 18°C
Humidity: 61%
Barometer: 29.92 inHg , 1013.2 hPa
Clouds: Overcast
Visibility: 10 miles , 16 km
Cloud details: Mostly cloudy 3900 ft
Overcast 4800 ft
2017/06/24 00:54 KAVL 240054Z 18011KT 10SM BKN039 OVC048 26/18 A2992 RMK AO2 PK WND 17026/0029 SLP100 T02560178
 
KRHP - Andrews, North Carolina, USA
Distance from station: WSW 40mi, 64km
Updated: Fri, 23-Jun-2017 9:20pm EDT
Overcast
Overcast
 Wind from WSW
Wind: WSW 8 mph , 13 km/h
Temperature: 72°F , 22°C
Dew Point: 70°F , 21°C
Humidity: 94%
Barometer: 29.96 inHg , 1014.6 hPa
Clouds: Overcast
Visibility: 10 miles , 16 km
Cloud details: Overcast 1800 ft
2017/06/24 01:20 KRHP 240120Z AUTO 24007KT 10SM OVC018 22/21 A2996 RMK AO2 T02180213
KLQK - Pickens, South Carolina, USA
Distance from station: SE 42mi, 68km
Updated: Fri, 23-Jun-2017 9:35pm EDT
Partly cloudy
Partly cloudy
 Wind from SSW
Wind: SSW 12 mph , 19 km/h, Gust: 17 mph , 28 km/h
Temperature: 81°F , 27°C
Heat Index: 85°F , 29°C
Dew Point: 72°F , 22°C
Humidity: 74%
Barometer: 29.89 inHg , 1012.2 hPa
Clouds: Partly cloudy
Visibility: 10 miles , 16 km
Cloud details: Partly cloudy 9500 ft
2017/06/24 01:35 KLQK 240135Z AUTO 21010G15KT 10SM SCT095 27/22 A2989 RMK AO2 T02650222
 
KCEU - Clemson, South Carolina, USA
Distance from station: SSE 46mi, 75km
Updated: Fri, 23-Jun-2017 8:54pm EDT
Clear
Clear
 Wind from varies
Wind: varies 3 mph , 6 km/h
Temperature: 81°F , 27°C
Heat Index: 85°F , 29°C
Dew Point: 72°F , 22°C
Humidity: 74%
Barometer: 29.90 inHg , 1012.5 hPa
Clouds: Clear
Visibility: 10 miles , 16 km
2017/06/24 00:54 KCEU 240054Z AUTO VRB03KT 10SM CLR 27/22 A2990 RMK AO2 SLP113 T02720222
KTOC - Toccoa, Georgia, USA
Distance from station: S 49mi, 79km
Updated: Fri, 23-Jun-2017 9:14pm EDT
Rain, Partly cloudy
Rain, Partly cloudy
 Wind from SW
Wind: SW 8 mph , 13 km/h
Temperature: 84°F , 29°C
Heat Index: 90°F , 32°C
Dew Point: 73°F , 23°C
Humidity: 70%
Barometer: 29.91 inHg , 1012.9 hPa
Summary: Rain
Clouds: Partly cloudy
Visibility: 10 miles , 16 km
Cloud details: Partly cloudy 7000 ft
2017/06/24 01:14 KTOC 240114Z AUTO 22007KT 10SM RA SCT070 29/23 A2991 RMK AO2